<?xml version="1.0" encoding="UTF-8" standalone="no" ?>
<gpx xmlns="http://www.topografix.com/GPX/1/1" xmlns:xsi="http://www.w3.org/2001/XMLSchema-instance" xsi:schemaLocation="http://www.topografix.com/GPX/1/1 http://www.topografix.com/GPX/1/1/gpx.xsd" version="1.1" creator="VisuGPX - https://www.visugpx.com">
  <metadata>
    <name>Peyrolles Chemin du Loubatas</name>
  </metadata>
  <trk>
    <name><![CDATA[Peyrolles Loubacas]]></name>
    <trkseg>
      <trkpt lat="43.63644" lon="5.58843">
        <ele>243</ele>
        <time>2020-03-03T12:58:55Z</time>
      </trkpt>
      <trkpt lat="43.63635" lon="5.58845">
        <ele>236</ele>
        <time>2020-03-03T12:59:34Z</time>
      </trkpt>
      <trkpt lat="43.63636" lon="5.58832">
        <ele>237</ele>
        <time>2020-03-03T13:06:58Z</time>
      </trkpt>
      <trkpt lat="43.63627" lon="5.58836">
        <ele>239</ele>
        <time>2020-03-03T13:07:10Z</time>
      </trkpt>
      <trkpt lat="43.63618" lon="5.58839">
        <ele>240</ele>
        <time>2020-03-03T13:07:23Z</time>
      </trkpt>
      <trkpt lat="43.63609" lon="5.58839">
        <ele>241</ele>
        <time>2020-03-03T13:07:34Z</time>
      </trkpt>
      <trkpt lat="43.636" lon="5.58841">
        <ele>241</ele>
        <time>2020-03-03T13:07:42Z</time>
      </trkpt>
      <trkpt lat="43.6359" lon="5.58844">
        <ele>241</ele>
        <time>2020-03-03T13:07:52Z</time>
      </trkpt>
      <trkpt lat="43.63581" lon="5.58844">
        <ele>240</ele>
        <time>2020-03-03T13:08:03Z</time>
      </trkpt>
      <trkpt lat="43.63572" lon="5.5884">
        <ele>239</ele>
        <time>2020-03-03T13:08:14Z</time>
      </trkpt>
      <trkpt lat="43.63563" lon="5.58836">
        <ele>240</ele>
        <time>2020-03-03T13:08:23Z</time>
      </trkpt>
      <trkpt lat="43.63556" lon="5.58828">
        <ele>239</ele>
        <time>2020-03-03T13:08:31Z</time>
      </trkpt>
      <trkpt lat="43.63548" lon="5.58822">
        <ele>238</ele>
        <time>2020-03-03T13:08:40Z</time>
      </trkpt>
      <trkpt lat="43.63542" lon="5.58813">
        <ele>239</ele>
        <time>2020-03-03T13:08:50Z</time>
      </trkpt>
      <trkpt lat="43.63533" lon="5.58807">
        <ele>238</ele>
        <time>2020-03-03T13:08:59Z</time>
      </trkpt>
      <trkpt lat="43.63526" lon="5.58797">
        <ele>237</ele>
        <time>2020-03-03T13:09:10Z</time>
      </trkpt>
      <trkpt lat="43.63518" lon="5.58789">
        <ele>238</ele>
        <time>2020-03-03T13:09:19Z</time>
      </trkpt>
      <trkpt lat="43.63511" lon="5.58781">
        <ele>236</ele>
        <time>2020-03-03T13:09:28Z</time>
      </trkpt>
      <trkpt lat="43.63502" lon="5.58776">
        <ele>237</ele>
        <time>2020-03-03T13:09:37Z</time>
      </trkpt>
      <trkpt lat="43.63493" lon="5.58768">
        <ele>238</ele>
        <time>2020-03-03T13:09:46Z</time>
      </trkpt>
      <trkpt lat="43.63483" lon="5.58761">
        <ele>239</ele>
        <time>2020-03-03T13:09:58Z</time>
      </trkpt>
      <trkpt lat="43.63475" lon="5.58754">
        <ele>240</ele>
        <time>2020-03-03T13:10:05Z</time>
      </trkpt>
      <trkpt lat="43.63466" lon="5.58749">
        <ele>240</ele>
        <time>2020-03-03T13:10:14Z</time>
      </trkpt>
      <trkpt lat="43.63458" lon="5.58743">
        <ele>240</ele>
        <time>2020-03-03T13:10:22Z</time>
      </trkpt>
      <trkpt lat="43.63448" lon="5.58739">
        <ele>239</ele>
        <time>2020-03-03T13:10:30Z</time>
      </trkpt>
      <trkpt lat="43.63439" lon="5.58735">
        <ele>240</ele>
        <time>2020-03-03T13:10:38Z</time>
      </trkpt>
      <trkpt lat="43.6343" lon="5.58731">
        <ele>241</ele>
        <time>2020-03-03T13:10:47Z</time>
      </trkpt>
      <trkpt lat="43.6342" lon="5.58731">
        <ele>242</ele>
        <time>2020-03-03T13:10:56Z</time>
      </trkpt>
      <trkpt lat="43.63411" lon="5.58733">
        <ele>242</ele>
        <time>2020-03-03T13:11:05Z</time>
      </trkpt>
      <trkpt lat="43.63401" lon="5.58736">
        <ele>242</ele>
        <time>2020-03-03T13:11:13Z</time>
      </trkpt>
      <trkpt lat="43.63393" lon="5.58745">
        <ele>240</ele>
        <time>2020-03-03T13:11:23Z</time>
      </trkpt>
      <trkpt lat="43.63385" lon="5.58751">
        <ele>242</ele>
        <time>2020-03-03T13:11:31Z</time>
      </trkpt>
      <trkpt lat="43.63376" lon="5.58754">
        <ele>243</ele>
        <time>2020-03-03T13:11:40Z</time>
      </trkpt>
      <trkpt lat="43.63366" lon="5.58753">
        <ele>244</ele>
        <time>2020-03-03T13:11:49Z</time>
      </trkpt>
      <trkpt lat="43.63357" lon="5.58749">
        <ele>245</ele>
        <time>2020-03-03T13:11:59Z</time>
      </trkpt>
      <trkpt lat="43.63348" lon="5.58751">
        <ele>244</ele>
        <time>2020-03-03T13:12:08Z</time>
      </trkpt>
      <trkpt lat="43.6334" lon="5.58756">
        <ele>245</ele>
        <time>2020-03-03T13:12:18Z</time>
      </trkpt>
      <trkpt lat="43.6333" lon="5.5876">
        <ele>246</ele>
        <time>2020-03-03T13:12:26Z</time>
      </trkpt>
      <trkpt lat="43.63321" lon="5.58764">
        <ele>248</ele>
        <time>2020-03-03T13:12:35Z</time>
      </trkpt>
      <trkpt lat="43.63312" lon="5.58768">
        <ele>249</ele>
        <time>2020-03-03T13:12:44Z</time>
      </trkpt>
      <trkpt lat="43.63302" lon="5.58771">
        <ele>248</ele>
        <time>2020-03-03T13:12:53Z</time>
      </trkpt>
      <trkpt lat="43.63292" lon="5.58772">
        <ele>248</ele>
        <time>2020-03-03T13:13:13Z</time>
      </trkpt>
      <trkpt lat="43.63283" lon="5.5877">
        <ele>247</ele>
        <time>2020-03-03T13:13:24Z</time>
      </trkpt>
      <trkpt lat="43.63274" lon="5.58767">
        <ele>244</ele>
        <time>2020-03-03T13:13:36Z</time>
      </trkpt>
      <trkpt lat="43.63264" lon="5.58762">
        <ele>244</ele>
        <time>2020-03-03T13:13:44Z</time>
      </trkpt>
      <trkpt lat="43.63257" lon="5.58754">
        <ele>242</ele>
        <time>2020-03-03T13:13:51Z</time>
      </trkpt>
      <trkpt lat="43.63248" lon="5.5875">
        <ele>241</ele>
        <time>2020-03-03T13:13:59Z</time>
      </trkpt>
      <trkpt lat="43.63239" lon="5.58746">
        <ele>242</ele>
        <time>2020-03-03T13:14:11Z</time>
      </trkpt>
      <trkpt lat="43.63231" lon="5.58739">
        <ele>241</ele>
        <time>2020-03-03T13:14:19Z</time>
      </trkpt>
      <trkpt lat="43.63222" lon="5.58738">
        <ele>242</ele>
        <time>2020-03-03T13:14:29Z</time>
      </trkpt>
      <trkpt lat="43.63213" lon="5.58733">
        <ele>244</ele>
        <time>2020-03-03T13:14:39Z</time>
      </trkpt>
      <trkpt lat="43.63204" lon="5.58727">
        <ele>243</ele>
        <time>2020-03-03T13:14:51Z</time>
      </trkpt>
      <trkpt lat="43.63194" lon="5.58726">
        <ele>245</ele>
        <time>2020-03-03T13:14:59Z</time>
      </trkpt>
      <trkpt lat="43.63185" lon="5.58722">
        <ele>243</ele>
        <time>2020-03-03T13:15:08Z</time>
      </trkpt>
      <trkpt lat="43.63175" lon="5.58723">
        <ele>243</ele>
        <time>2020-03-03T13:15:16Z</time>
      </trkpt>
      <trkpt lat="43.63165" lon="5.58727">
        <ele>244</ele>
        <time>2020-03-03T13:15:26Z</time>
      </trkpt>
      <trkpt lat="43.63156" lon="5.5873">
        <ele>245</ele>
        <time>2020-03-03T13:15:34Z</time>
      </trkpt>
      <trkpt lat="43.63146" lon="5.58736">
        <ele>244</ele>
        <time>2020-03-03T13:15:43Z</time>
      </trkpt>
      <trkpt lat="43.63137" lon="5.58742">
        <ele>244</ele>
        <time>2020-03-03T13:15:52Z</time>
      </trkpt>
      <trkpt lat="43.63128" lon="5.58748">
        <ele>245</ele>
        <time>2020-03-03T13:16:01Z</time>
      </trkpt>
      <trkpt lat="43.63122" lon="5.58758">
        <ele>245</ele>
        <time>2020-03-03T13:16:12Z</time>
      </trkpt>
      <trkpt lat="43.6312" lon="5.5877">
        <ele>244</ele>
        <time>2020-03-03T13:16:21Z</time>
      </trkpt>
      <trkpt lat="43.63116" lon="5.58782">
        <ele>243</ele>
        <time>2020-03-03T13:16:31Z</time>
      </trkpt>
      <trkpt lat="43.63111" lon="5.58794">
        <ele>243</ele>
        <time>2020-03-03T13:16:40Z</time>
      </trkpt>
      <trkpt lat="43.63104" lon="5.58803">
        <ele>244</ele>
        <time>2020-03-03T13:16:49Z</time>
      </trkpt>
      <trkpt lat="43.63096" lon="5.5881">
        <ele>244</ele>
        <time>2020-03-03T13:16:58Z</time>
      </trkpt>
      <trkpt lat="43.63088" lon="5.58817">
        <ele>245</ele>
        <time>2020-03-03T13:17:06Z</time>
      </trkpt>
      <trkpt lat="43.63079" lon="5.58821">
        <ele>248</ele>
        <time>2020-03-03T13:17:15Z</time>
      </trkpt>
      <trkpt lat="43.63071" lon="5.58829">
        <ele>249</ele>
        <time>2020-03-03T13:17:26Z</time>
      </trkpt>
      <trkpt lat="43.63065" lon="5.5884">
        <ele>249</ele>
        <time>2020-03-03T13:17:36Z</time>
      </trkpt>
      <trkpt lat="43.63062" lon="5.58852">
        <ele>251</ele>
        <time>2020-03-03T13:17:46Z</time>
      </trkpt>
      <trkpt lat="43.63058" lon="5.58863">
        <ele>251</ele>
        <time>2020-03-03T13:17:55Z</time>
      </trkpt>
      <trkpt lat="43.63052" lon="5.58873">
        <ele>249</ele>
        <time>2020-03-03T13:18:07Z</time>
      </trkpt>
      <trkpt lat="43.63044" lon="5.58881">
        <ele>250</ele>
        <time>2020-03-03T13:18:17Z</time>
      </trkpt>
      <trkpt lat="43.63035" lon="5.58879">
        <ele>249</ele>
        <time>2020-03-03T13:18:27Z</time>
      </trkpt>
      <trkpt lat="43.63026" lon="5.58875">
        <ele>248</ele>
        <time>2020-03-03T13:18:37Z</time>
      </trkpt>
      <trkpt lat="43.63017" lon="5.58872">
        <ele>248</ele>
        <time>2020-03-03T13:18:46Z</time>
      </trkpt>
      <trkpt lat="43.63007" lon="5.5887">
        <ele>248</ele>
        <time>2020-03-03T13:18:57Z</time>
      </trkpt>
      <trkpt lat="43.62998" lon="5.58869">
        <ele>249</ele>
        <time>2020-03-03T13:19:09Z</time>
      </trkpt>
      <trkpt lat="43.62989" lon="5.58865">
        <ele>249</ele>
        <time>2020-03-03T13:19:22Z</time>
      </trkpt>
      <trkpt lat="43.62982" lon="5.58855">
        <ele>251</ele>
        <time>2020-03-03T13:19:33Z</time>
      </trkpt>
      <trkpt lat="43.62974" lon="5.5885">
        <ele>252</ele>
        <time>2020-03-03T13:19:45Z</time>
      </trkpt>
      <trkpt lat="43.62965" lon="5.58844">
        <ele>252</ele>
        <time>2020-03-03T13:19:54Z</time>
      </trkpt>
      <trkpt lat="43.62956" lon="5.5884">
        <ele>252</ele>
        <time>2020-03-03T13:20:05Z</time>
      </trkpt>
      <trkpt lat="43.62947" lon="5.58834">
        <ele>254</ele>
        <time>2020-03-03T13:20:34Z</time>
      </trkpt>
      <trkpt lat="43.6294" lon="5.58827">
        <ele>255</ele>
        <time>2020-03-03T13:20:49Z</time>
      </trkpt>
      <trkpt lat="43.62932" lon="5.58821">
        <ele>255</ele>
        <time>2020-03-03T13:21:01Z</time>
      </trkpt>
      <trkpt lat="43.62923" lon="5.58815">
        <ele>255</ele>
        <time>2020-03-03T13:21:17Z</time>
      </trkpt>
      <trkpt lat="43.62914" lon="5.58809">
        <ele>254</ele>
        <time>2020-03-03T13:21:29Z</time>
      </trkpt>
      <trkpt lat="43.62905" lon="5.58803">
        <ele>254</ele>
        <time>2020-03-03T13:21:38Z</time>
      </trkpt>
      <trkpt lat="43.62895" lon="5.58798">
        <ele>257</ele>
        <time>2020-03-03T13:21:48Z</time>
      </trkpt>
      <trkpt lat="43.62886" lon="5.58795">
        <ele>260</ele>
        <time>2020-03-03T13:21:59Z</time>
      </trkpt>
      <trkpt lat="43.62876" lon="5.58791">
        <ele>262</ele>
        <time>2020-03-03T13:22:10Z</time>
      </trkpt>
      <trkpt lat="43.62867" lon="5.5879">
        <ele>265</ele>
        <time>2020-03-03T13:22:23Z</time>
      </trkpt>
      <trkpt lat="43.62857" lon="5.58788">
        <ele>265</ele>
        <time>2020-03-03T13:22:33Z</time>
      </trkpt>
      <trkpt lat="43.62848" lon="5.58786">
        <ele>267</ele>
        <time>2020-03-03T13:22:43Z</time>
      </trkpt>
      <trkpt lat="43.62839" lon="5.58784">
        <ele>267</ele>
        <time>2020-03-03T13:22:53Z</time>
      </trkpt>
      <trkpt lat="43.6283" lon="5.58782">
        <ele>268</ele>
        <time>2020-03-03T13:23:04Z</time>
      </trkpt>
      <trkpt lat="43.6282" lon="5.58779">
        <ele>267</ele>
        <time>2020-03-03T13:23:15Z</time>
      </trkpt>
      <trkpt lat="43.62811" lon="5.58773">
        <ele>265</ele>
        <time>2020-03-03T13:23:27Z</time>
      </trkpt>
      <trkpt lat="43.62802" lon="5.58769">
        <ele>264</ele>
        <time>2020-03-03T13:23:36Z</time>
      </trkpt>
      <trkpt lat="43.62794" lon="5.58764">
        <ele>263</ele>
        <time>2020-03-03T13:23:45Z</time>
      </trkpt>
      <trkpt lat="43.62785" lon="5.58757">
        <ele>261</ele>
        <time>2020-03-03T13:23:56Z</time>
      </trkpt>
      <trkpt lat="43.62777" lon="5.58749">
        <ele>259</ele>
        <time>2020-03-03T13:24:07Z</time>
      </trkpt>
      <trkpt lat="43.6277" lon="5.58739">
        <ele>260</ele>
        <time>2020-03-03T13:24:16Z</time>
      </trkpt>
      <trkpt lat="43.62766" lon="5.58729">
        <ele>259</ele>
        <time>2020-03-03T13:24:26Z</time>
      </trkpt>
      <trkpt lat="43.62763" lon="5.58716">
        <ele>259</ele>
        <time>2020-03-03T13:24:36Z</time>
      </trkpt>
      <trkpt lat="43.62762" lon="5.58704">
        <ele>258</ele>
        <time>2020-03-03T13:24:45Z</time>
      </trkpt>
      <trkpt lat="43.62759" lon="5.5869">
        <ele>259</ele>
        <time>2020-03-03T13:24:55Z</time>
      </trkpt>
      <trkpt lat="43.62757" lon="5.58678">
        <ele>260</ele>
        <time>2020-03-03T13:25:04Z</time>
      </trkpt>
      <trkpt lat="43.62753" lon="5.58666">
        <ele>261</ele>
        <time>2020-03-03T13:25:15Z</time>
      </trkpt>
      <trkpt lat="43.62747" lon="5.58656">
        <ele>262</ele>
        <time>2020-03-03T13:25:26Z</time>
      </trkpt>
      <trkpt lat="43.62741" lon="5.58645">
        <ele>259</ele>
        <time>2020-03-03T13:25:37Z</time>
      </trkpt>
      <trkpt lat="43.62735" lon="5.58636">
        <ele>261</ele>
        <time>2020-03-03T13:25:47Z</time>
      </trkpt>
      <trkpt lat="43.62727" lon="5.58628">
        <ele>263</ele>
        <time>2020-03-03T13:25:57Z</time>
      </trkpt>
      <trkpt lat="43.62719" lon="5.58623">
        <ele>265</ele>
        <time>2020-03-03T13:26:07Z</time>
      </trkpt>
      <trkpt lat="43.62712" lon="5.58615">
        <ele>267</ele>
        <time>2020-03-03T13:26:17Z</time>
      </trkpt>
      <trkpt lat="43.62703" lon="5.58609">
        <ele>268</ele>
        <time>2020-03-03T13:26:30Z</time>
      </trkpt>
      <trkpt lat="43.62696" lon="5.58599">
        <ele>270</ele>
        <time>2020-03-03T13:26:42Z</time>
      </trkpt>
      <trkpt lat="43.62689" lon="5.58591">
        <ele>272</ele>
        <time>2020-03-03T13:26:52Z</time>
      </trkpt>
      <trkpt lat="43.62684" lon="5.58581">
        <ele>272</ele>
        <time>2020-03-03T13:27:01Z</time>
      </trkpt>
      <trkpt lat="43.62679" lon="5.5857">
        <ele>272</ele>
        <time>2020-03-03T13:27:12Z</time>
      </trkpt>
      <trkpt lat="43.62675" lon="5.58559">
        <ele>273</ele>
        <time>2020-03-03T13:27:22Z</time>
      </trkpt>
      <trkpt lat="43.6267" lon="5.58548">
        <ele>271</ele>
        <time>2020-03-03T13:27:31Z</time>
      </trkpt>
      <trkpt lat="43.62667" lon="5.58535">
        <ele>272</ele>
        <time>2020-03-03T13:27:43Z</time>
      </trkpt>
      <trkpt lat="43.62663" lon="5.58522">
        <ele>269</ele>
        <time>2020-03-03T13:27:56Z</time>
      </trkpt>
      <trkpt lat="43.62658" lon="5.58512">
        <ele>269</ele>
        <time>2020-03-03T13:28:04Z</time>
      </trkpt>
      <trkpt lat="43.6265" lon="5.58504">
        <ele>267</ele>
        <time>2020-03-03T13:28:14Z</time>
      </trkpt>
      <trkpt lat="43.62643" lon="5.58496">
        <ele>266</ele>
        <time>2020-03-03T13:28:25Z</time>
      </trkpt>
      <trkpt lat="43.62635" lon="5.58487">
        <ele>267</ele>
        <time>2020-03-03T13:28:38Z</time>
      </trkpt>
      <trkpt lat="43.62628" lon="5.58479">
        <ele>267</ele>
        <time>2020-03-03T13:28:47Z</time>
      </trkpt>
      <trkpt lat="43.62621" lon="5.58471">
        <ele>268</ele>
        <time>2020-03-03T13:28:56Z</time>
      </trkpt>
      <trkpt lat="43.62612" lon="5.58466">
        <ele>268</ele>
        <time>2020-03-03T13:29:07Z</time>
      </trkpt>
      <trkpt lat="43.62603" lon="5.58461">
        <ele>271</ele>
        <time>2020-03-03T13:29:18Z</time>
      </trkpt>
      <trkpt lat="43.62594" lon="5.58457">
        <ele>273</ele>
        <time>2020-03-03T13:29:28Z</time>
      </trkpt>
      <trkpt lat="43.62585" lon="5.58451">
        <ele>273</ele>
        <time>2020-03-03T13:29:37Z</time>
      </trkpt>
      <trkpt lat="43.62576" lon="5.58448">
        <ele>276</ele>
        <time>2020-03-03T13:29:46Z</time>
      </trkpt>
      <trkpt lat="43.62568" lon="5.58443">
        <ele>277</ele>
        <time>2020-03-03T13:29:54Z</time>
      </trkpt>
      <trkpt lat="43.62559" lon="5.58438">
        <ele>279</ele>
        <time>2020-03-03T13:30:04Z</time>
      </trkpt>
      <trkpt lat="43.62551" lon="5.58431">
        <ele>278</ele>
        <time>2020-03-03T13:30:14Z</time>
      </trkpt>
      <trkpt lat="43.62545" lon="5.5842">
        <ele>278</ele>
        <time>2020-03-03T13:30:24Z</time>
      </trkpt>
      <trkpt lat="43.6254" lon="5.5841">
        <ele>279</ele>
        <time>2020-03-03T13:30:34Z</time>
      </trkpt>
      <trkpt lat="43.62534" lon="5.58399">
        <ele>276</ele>
        <time>2020-03-03T13:30:44Z</time>
      </trkpt>
      <trkpt lat="43.62528" lon="5.58389">
        <ele>273</ele>
        <time>2020-03-03T13:30:53Z</time>
      </trkpt>
      <trkpt lat="43.6252" lon="5.58383">
        <ele>274</ele>
        <time>2020-03-03T13:31:02Z</time>
      </trkpt>
      <trkpt lat="43.6251" lon="5.58376">
        <ele>275</ele>
        <time>2020-03-03T13:31:12Z</time>
      </trkpt>
      <trkpt lat="43.62501" lon="5.58372">
        <ele>277</ele>
        <time>2020-03-03T13:31:21Z</time>
      </trkpt>
      <trkpt lat="43.62493" lon="5.58367">
        <ele>278</ele>
        <time>2020-03-03T13:31:29Z</time>
      </trkpt>
      <trkpt lat="43.62484" lon="5.58362">
        <ele>278</ele>
        <time>2020-03-03T13:31:38Z</time>
      </trkpt>
      <trkpt lat="43.62475" lon="5.58355">
        <ele>278</ele>
        <time>2020-03-03T13:31:49Z</time>
      </trkpt>
      <trkpt lat="43.62468" lon="5.58348">
        <ele>279</ele>
        <time>2020-03-03T13:32:00Z</time>
      </trkpt>
      <trkpt lat="43.62461" lon="5.58339">
        <ele>279</ele>
        <time>2020-03-03T13:32:10Z</time>
      </trkpt>
      <trkpt lat="43.62454" lon="5.58331">
        <ele>278</ele>
        <time>2020-03-03T13:32:20Z</time>
      </trkpt>
      <trkpt lat="43.62445" lon="5.58329">
        <ele>279</ele>
        <time>2020-03-03T13:32:52Z</time>
      </trkpt>
      <trkpt lat="43.62437" lon="5.58321">
        <ele>279</ele>
        <time>2020-03-03T13:33:07Z</time>
      </trkpt>
      <trkpt lat="43.62431" lon="5.58312">
        <ele>281</ele>
        <time>2020-03-03T13:33:23Z</time>
      </trkpt>
      <trkpt lat="43.62424" lon="5.58303">
        <ele>282</ele>
        <time>2020-03-03T13:33:34Z</time>
      </trkpt>
      <trkpt lat="43.62417" lon="5.58295">
        <ele>285</ele>
        <time>2020-03-03T13:33:47Z</time>
      </trkpt>
      <trkpt lat="43.62409" lon="5.58302">
        <ele>291</ele>
        <time>2020-03-03T13:34:02Z</time>
      </trkpt>
      <trkpt lat="43.62407" lon="5.58315">
        <ele>292</ele>
        <time>2020-03-03T13:34:15Z</time>
      </trkpt>
      <trkpt lat="43.62407" lon="5.58328">
        <ele>294</ele>
        <time>2020-03-03T13:34:28Z</time>
      </trkpt>
      <trkpt lat="43.624" lon="5.5832">
        <ele>293</ele>
        <time>2020-03-03T13:35:23Z</time>
      </trkpt>
      <trkpt lat="43.62391" lon="5.58313">
        <ele>297</ele>
        <time>2020-03-03T13:35:35Z</time>
      </trkpt>
      <trkpt lat="43.62382" lon="5.58317">
        <ele>298</ele>
        <time>2020-03-03T13:35:42Z</time>
      </trkpt>
      <trkpt lat="43.62373" lon="5.58323">
        <ele>298</ele>
        <time>2020-03-03T13:35:54Z</time>
      </trkpt>
      <trkpt lat="43.62381" lon="5.58316">
        <ele>301</ele>
        <time>2020-03-03T13:36:21Z</time>
      </trkpt>
      <trkpt lat="43.62391" lon="5.58316">
        <ele>300</ele>
        <time>2020-03-03T13:36:29Z</time>
      </trkpt>
      <trkpt lat="43.62401" lon="5.58317">
        <ele>302</ele>
        <time>2020-03-03T13:36:52Z</time>
      </trkpt>
      <trkpt lat="43.62405" lon="5.5833">
        <ele>301</ele>
        <time>2020-03-03T13:37:14Z</time>
      </trkpt>
      <trkpt lat="43.62412" lon="5.58338">
        <ele>299</ele>
        <time>2020-03-03T13:37:31Z</time>
      </trkpt>
      <trkpt lat="43.62413" lon="5.5835">
        <ele>299</ele>
        <time>2020-03-03T13:37:44Z</time>
      </trkpt>
      <trkpt lat="43.62412" lon="5.58363">
        <ele>297</ele>
        <time>2020-03-03T13:37:58Z</time>
      </trkpt>
      <trkpt lat="43.62417" lon="5.58376">
        <ele>297</ele>
        <time>2020-03-03T13:38:15Z</time>
      </trkpt>
      <trkpt lat="43.62412" lon="5.58365">
        <ele>298</ele>
        <time>2020-03-03T13:39:16Z</time>
      </trkpt>
      <trkpt lat="43.62411" lon="5.58352">
        <ele>297</ele>
        <time>2020-03-03T13:39:31Z</time>
      </trkpt>
      <trkpt lat="43.6241" lon="5.58337">
        <ele>296</ele>
        <time>2020-03-03T13:39:50Z</time>
      </trkpt>
      <trkpt lat="43.62402" lon="5.58326">
        <ele>295</ele>
        <time>2020-03-03T13:40:17Z</time>
      </trkpt>
      <trkpt lat="43.62397" lon="5.58315">
        <ele>300</ele>
        <time>2020-03-03T13:40:32Z</time>
      </trkpt>
      <trkpt lat="43.62388" lon="5.58313">
        <ele>303</ele>
        <time>2020-03-03T13:40:51Z</time>
      </trkpt>
      <trkpt lat="43.62378" lon="5.58314">
        <ele>303</ele>
        <time>2020-03-03T13:41:46Z</time>
      </trkpt>
      <trkpt lat="43.62371" lon="5.58321">
        <ele>303</ele>
        <time>2020-03-03T13:41:58Z</time>
      </trkpt>
      <trkpt lat="43.62362" lon="5.58323">
        <ele>302</ele>
        <time>2020-03-03T13:42:11Z</time>
      </trkpt>
      <trkpt lat="43.62355" lon="5.58332">
        <ele>302</ele>
        <time>2020-03-03T13:42:27Z</time>
      </trkpt>
      <trkpt lat="43.62346" lon="5.58336">
        <ele>300</ele>
        <time>2020-03-03T13:42:39Z</time>
      </trkpt>
      <trkpt lat="43.62337" lon="5.58334">
        <ele>300</ele>
        <time>2020-03-03T13:43:00Z</time>
      </trkpt>
      <trkpt lat="43.62328" lon="5.58329">
        <ele>299</ele>
        <time>2020-03-03T13:43:16Z</time>
      </trkpt>
      <trkpt lat="43.62318" lon="5.58332">
        <ele>299</ele>
        <time>2020-03-03T13:43:44Z</time>
      </trkpt>
      <trkpt lat="43.6231" lon="5.58339">
        <ele>301</ele>
        <time>2020-03-03T13:44:04Z</time>
      </trkpt>
      <trkpt lat="43.62303" lon="5.58347">
        <ele>303</ele>
        <time>2020-03-03T13:44:20Z</time>
      </trkpt>
      <trkpt lat="43.62295" lon="5.58356">
        <ele>304</ele>
        <time>2020-03-03T13:44:38Z</time>
      </trkpt>
      <trkpt lat="43.62287" lon="5.58361">
        <ele>302</ele>
        <time>2020-03-03T13:45:04Z</time>
      </trkpt>
      <trkpt lat="43.62277" lon="5.58359">
        <ele>300</ele>
        <time>2020-03-03T13:45:18Z</time>
      </trkpt>
      <trkpt lat="43.62267" lon="5.58353">
        <ele>297</ele>
        <time>2020-03-03T13:45:43Z</time>
      </trkpt>
      <trkpt lat="43.62274" lon="5.58344">
        <ele>298</ele>
        <time>2020-03-03T13:46:19Z</time>
      </trkpt>
      <trkpt lat="43.62283" lon="5.58348">
        <ele>296</ele>
        <time>2020-03-03T13:46:28Z</time>
      </trkpt>
      <trkpt lat="43.62292" lon="5.58351">
        <ele>296</ele>
        <time>2020-03-03T13:46:49Z</time>
      </trkpt>
      <trkpt lat="43.62283" lon="5.58349">
        <ele>296</ele>
        <time>2020-03-03T13:47:41Z</time>
      </trkpt>
      <trkpt lat="43.62273" lon="5.58346">
        <ele>293</ele>
        <time>2020-03-03T13:48:11Z</time>
      </trkpt>
      <trkpt lat="43.62269" lon="5.58334">
        <ele>292</ele>
        <time>2020-03-03T13:48:34Z</time>
      </trkpt>
      <trkpt lat="43.62268" lon="5.58321">
        <ele>292</ele>
        <time>2020-03-03T13:48:55Z</time>
      </trkpt>
      <trkpt lat="43.62261" lon="5.58311">
        <ele>294</ele>
        <time>2020-03-03T13:49:19Z</time>
      </trkpt>
      <trkpt lat="43.62253" lon="5.58305">
        <ele>291</ele>
        <time>2020-03-03T13:49:32Z</time>
      </trkpt>
      <trkpt lat="43.62244" lon="5.58297">
        <ele>292</ele>
        <time>2020-03-03T13:49:47Z</time>
      </trkpt>
      <trkpt lat="43.62235" lon="5.58298">
        <ele>293</ele>
        <time>2020-03-03T13:50:11Z</time>
      </trkpt>
      <trkpt lat="43.62225" lon="5.58303">
        <ele>295</ele>
        <time>2020-03-03T13:50:30Z</time>
      </trkpt>
      <trkpt lat="43.62217" lon="5.58308">
        <ele>296</ele>
        <time>2020-03-03T13:50:56Z</time>
      </trkpt>
      <trkpt lat="43.62208" lon="5.58305">
        <ele>295</ele>
        <time>2020-03-03T13:51:17Z</time>
      </trkpt>
      <trkpt lat="43.62199" lon="5.58303">
        <ele>293</ele>
        <time>2020-03-03T13:51:53Z</time>
      </trkpt>
      <trkpt lat="43.62189" lon="5.58301">
        <ele>292</ele>
        <time>2020-03-03T13:52:08Z</time>
      </trkpt>
      <trkpt lat="43.6218" lon="5.58297">
        <ele>290</ele>
        <time>2020-03-03T13:52:25Z</time>
      </trkpt>
      <trkpt lat="43.62172" lon="5.5829">
        <ele>291</ele>
        <time>2020-03-03T13:52:36Z</time>
      </trkpt>
      <trkpt lat="43.62164" lon="5.58284">
        <ele>294</ele>
        <time>2020-03-03T13:52:47Z</time>
      </trkpt>
      <trkpt lat="43.62156" lon="5.58278">
        <ele>293</ele>
        <time>2020-03-03T13:53:02Z</time>
      </trkpt>
      <trkpt lat="43.6215" lon="5.58267">
        <ele>292</ele>
        <time>2020-03-03T13:53:13Z</time>
      </trkpt>
      <trkpt lat="43.62144" lon="5.58257">
        <ele>290</ele>
        <time>2020-03-03T13:53:25Z</time>
      </trkpt>
      <trkpt lat="43.62139" lon="5.58246">
        <ele>293</ele>
        <time>2020-03-03T13:53:37Z</time>
      </trkpt>
      <trkpt lat="43.62134" lon="5.58235">
        <ele>299</ele>
        <time>2020-03-03T13:54:02Z</time>
      </trkpt>
      <trkpt lat="43.62127" lon="5.58227">
        <ele>300</ele>
        <time>2020-03-03T13:54:13Z</time>
      </trkpt>
      <trkpt lat="43.62118" lon="5.58228">
        <ele>299</ele>
        <time>2020-03-03T13:54:32Z</time>
      </trkpt>
      <trkpt lat="43.62109" lon="5.58231">
        <ele>299</ele>
        <time>2020-03-03T13:54:42Z</time>
      </trkpt>
      <trkpt lat="43.621" lon="5.58234">
        <ele>297</ele>
        <time>2020-03-03T13:54:55Z</time>
      </trkpt>
      <trkpt lat="43.62092" lon="5.58239">
        <ele>298</ele>
        <time>2020-03-03T13:55:05Z</time>
      </trkpt>
      <trkpt lat="43.62084" lon="5.58246">
        <ele>298</ele>
        <time>2020-03-03T13:55:17Z</time>
      </trkpt>
      <trkpt lat="43.62075" lon="5.58248">
        <ele>298</ele>
        <time>2020-03-03T13:55:27Z</time>
      </trkpt>
      <trkpt lat="43.62065" lon="5.58247">
        <ele>302</ele>
        <time>2020-03-03T13:55:39Z</time>
      </trkpt>
      <trkpt lat="43.62058" lon="5.58236">
        <ele>303</ele>
        <time>2020-03-03T13:55:53Z</time>
      </trkpt>
      <trkpt lat="43.62052" lon="5.58226">
        <ele>300</ele>
        <time>2020-03-03T13:56:06Z</time>
      </trkpt>
      <trkpt lat="43.62049" lon="5.58215">
        <ele>301</ele>
        <time>2020-03-03T13:56:17Z</time>
      </trkpt>
      <trkpt lat="43.62051" lon="5.58201">
        <ele>305</ele>
        <time>2020-03-03T13:56:53Z</time>
      </trkpt>
      <trkpt lat="43.6205" lon="5.58188">
        <ele>304</ele>
        <time>2020-03-03T13:57:02Z</time>
      </trkpt>
      <trkpt lat="43.62058" lon="5.58194">
        <ele>311</ele>
        <time>2020-03-03T13:57:34Z</time>
      </trkpt>
      <trkpt lat="43.62067" lon="5.58199">
        <ele>308</ele>
        <time>2020-03-03T13:57:50Z</time>
      </trkpt>
      <trkpt lat="43.62075" lon="5.58193">
        <ele>308</ele>
        <time>2020-03-03T13:58:04Z</time>
      </trkpt>
      <trkpt lat="43.62082" lon="5.58184">
        <ele>309</ele>
        <time>2020-03-03T13:58:16Z</time>
      </trkpt>
      <trkpt lat="43.62089" lon="5.58176">
        <ele>309</ele>
        <time>2020-03-03T13:58:27Z</time>
      </trkpt>
      <trkpt lat="43.62096" lon="5.58166">
        <ele>311</ele>
        <time>2020-03-03T13:58:38Z</time>
      </trkpt>
      <trkpt lat="43.62104" lon="5.58159">
        <ele>312</ele>
        <time>2020-03-03T13:58:49Z</time>
      </trkpt>
      <trkpt lat="43.62113" lon="5.58155">
        <ele>312</ele>
        <time>2020-03-03T13:59:00Z</time>
      </trkpt>
      <trkpt lat="43.62122" lon="5.58155">
        <ele>314</ele>
        <time>2020-03-03T13:59:13Z</time>
      </trkpt>
      <trkpt lat="43.62132" lon="5.58156">
        <ele>316</ele>
        <time>2020-03-03T13:59:24Z</time>
      </trkpt>
      <trkpt lat="43.62141" lon="5.58158">
        <ele>317</ele>
        <time>2020-03-03T13:59:37Z</time>
      </trkpt>
      <trkpt lat="43.6215" lon="5.58158">
        <ele>317</ele>
        <time>2020-03-03T13:59:49Z</time>
      </trkpt>
      <trkpt lat="43.6216" lon="5.58159">
        <ele>320</ele>
        <time>2020-03-03T14:00:15Z</time>
      </trkpt>
      <trkpt lat="43.62171" lon="5.5816">
        <ele>321</ele>
        <time>2020-03-03T14:00:32Z</time>
      </trkpt>
      <trkpt lat="43.6218" lon="5.58158">
        <ele>321</ele>
        <time>2020-03-03T14:00:44Z</time>
      </trkpt>
      <trkpt lat="43.62189" lon="5.58154">
        <ele>323</ele>
        <time>2020-03-03T14:00:55Z</time>
      </trkpt>
      <trkpt lat="43.62198" lon="5.58154">
        <ele>324</ele>
        <time>2020-03-03T14:06:29Z</time>
      </trkpt>
      <trkpt lat="43.62208" lon="5.5815">
        <ele>326</ele>
        <time>2020-03-03T14:09:02Z</time>
      </trkpt>
      <trkpt lat="43.62218" lon="5.58149">
        <ele>326</ele>
        <time>2020-03-03T14:09:12Z</time>
      </trkpt>
      <trkpt lat="43.62227" lon="5.58146">
        <ele>327</ele>
        <time>2020-03-03T14:09:22Z</time>
      </trkpt>
      <trkpt lat="43.62236" lon="5.58143">
        <ele>327</ele>
        <time>2020-03-03T14:09:32Z</time>
      </trkpt>
      <trkpt lat="43.62245" lon="5.58139">
        <ele>324</ele>
        <time>2020-03-03T14:09:42Z</time>
      </trkpt>
      <trkpt lat="43.62253" lon="5.58133">
        <ele>322</ele>
        <time>2020-03-03T14:09:49Z</time>
      </trkpt>
      <trkpt lat="43.62262" lon="5.58128">
        <ele>322</ele>
        <time>2020-03-03T14:09:59Z</time>
      </trkpt>
      <trkpt lat="43.62271" lon="5.58124">
        <ele>323</ele>
        <time>2020-03-03T14:10:10Z</time>
      </trkpt>
      <trkpt lat="43.6228" lon="5.58119">
        <ele>324</ele>
        <time>2020-03-03T14:10:21Z</time>
      </trkpt>
      <trkpt lat="43.62288" lon="5.58111">
        <ele>323</ele>
        <time>2020-03-03T14:10:31Z</time>
      </trkpt>
      <trkpt lat="43.62293" lon="5.58101">
        <ele>325</ele>
        <time>2020-03-03T14:10:41Z</time>
      </trkpt>
      <trkpt lat="43.62298" lon="5.58089">
        <ele>325</ele>
        <time>2020-03-03T14:10:53Z</time>
      </trkpt>
      <trkpt lat="43.62291" lon="5.58097">
        <ele>330</ele>
        <time>2020-03-03T14:11:49Z</time>
      </trkpt>
      <trkpt lat="43.62286" lon="5.58108">
        <ele>328</ele>
        <time>2020-03-03T14:12:18Z</time>
      </trkpt>
      <trkpt lat="43.62292" lon="5.58098">
        <ele>330</ele>
        <time>2020-03-03T14:12:47Z</time>
      </trkpt>
      <trkpt lat="43.62295" lon="5.58085">
        <ele>329</ele>
        <time>2020-03-03T14:12:58Z</time>
      </trkpt>
      <trkpt lat="43.623" lon="5.58071">
        <ele>328</ele>
        <time>2020-03-03T14:13:13Z</time>
      </trkpt>
      <trkpt lat="43.62307" lon="5.58061">
        <ele>323</ele>
        <time>2020-03-03T14:13:24Z</time>
      </trkpt>
      <trkpt lat="43.62313" lon="5.5805">
        <ele>320</ele>
        <time>2020-03-03T14:13:35Z</time>
      </trkpt>
      <trkpt lat="43.62317" lon="5.58039">
        <ele>320</ele>
        <time>2020-03-03T14:13:45Z</time>
      </trkpt>
      <trkpt lat="43.6232" lon="5.58026">
        <ele>320</ele>
        <time>2020-03-03T14:13:57Z</time>
      </trkpt>
      <trkpt lat="43.62324" lon="5.58015">
        <ele>319</ele>
        <time>2020-03-03T14:14:05Z</time>
      </trkpt>
      <trkpt lat="43.62332" lon="5.58006">
        <ele>319</ele>
        <time>2020-03-03T14:14:14Z</time>
      </trkpt>
      <trkpt lat="43.62339" lon="5.57996">
        <ele>319</ele>
        <time>2020-03-03T14:14:23Z</time>
      </trkpt>
      <trkpt lat="43.62345" lon="5.57986">
        <ele>319</ele>
        <time>2020-03-03T14:14:33Z</time>
      </trkpt>
      <trkpt lat="43.62351" lon="5.57976">
        <ele>317</ele>
        <time>2020-03-03T14:14:42Z</time>
      </trkpt>
      <trkpt lat="43.62352" lon="5.57964">
        <ele>316</ele>
        <time>2020-03-03T14:14:51Z</time>
      </trkpt>
      <trkpt lat="43.62349" lon="5.57951">
        <ele>316</ele>
        <time>2020-03-03T14:14:59Z</time>
      </trkpt>
      <trkpt lat="43.62348" lon="5.57939">
        <ele>316</ele>
        <time>2020-03-03T14:15:07Z</time>
      </trkpt>
      <trkpt lat="43.6235" lon="5.57926">
        <ele>317</ele>
        <time>2020-03-03T14:15:16Z</time>
      </trkpt>
      <trkpt lat="43.62356" lon="5.57915">
        <ele>318</ele>
        <time>2020-03-03T14:15:25Z</time>
      </trkpt>
      <trkpt lat="43.62361" lon="5.57905">
        <ele>319</ele>
        <time>2020-03-03T14:15:34Z</time>
      </trkpt>
      <trkpt lat="43.62366" lon="5.57894">
        <ele>320</ele>
        <time>2020-03-03T14:15:42Z</time>
      </trkpt>
      <trkpt lat="43.62371" lon="5.57883">
        <ele>321</ele>
        <time>2020-03-03T14:15:51Z</time>
      </trkpt>
      <trkpt lat="43.62379" lon="5.57875">
        <ele>319</ele>
        <time>2020-03-03T14:15:58Z</time>
      </trkpt>
      <trkpt lat="43.62385" lon="5.57866">
        <ele>319</ele>
        <time>2020-03-03T14:16:06Z</time>
      </trkpt>
      <trkpt lat="43.62393" lon="5.57857">
        <ele>317</ele>
        <time>2020-03-03T14:16:15Z</time>
      </trkpt>
      <trkpt lat="43.62399" lon="5.57847">
        <ele>318</ele>
        <time>2020-03-03T14:16:23Z</time>
      </trkpt>
      <trkpt lat="43.62407" lon="5.57838">
        <ele>319</ele>
        <time>2020-03-03T14:16:32Z</time>
      </trkpt>
      <trkpt lat="43.62414" lon="5.57829">
        <ele>319</ele>
        <time>2020-03-03T14:16:41Z</time>
      </trkpt>
      <trkpt lat="43.62422" lon="5.57823">
        <ele>320</ele>
        <time>2020-03-03T14:16:50Z</time>
      </trkpt>
      <trkpt lat="43.6243" lon="5.57816">
        <ele>321</ele>
        <time>2020-03-03T14:16:59Z</time>
      </trkpt>
      <trkpt lat="43.62439" lon="5.57818">
        <ele>322</ele>
        <time>2020-03-03T14:17:19Z</time>
      </trkpt>
      <trkpt lat="43.62449" lon="5.57819">
        <ele>320</ele>
        <time>2020-03-03T14:17:30Z</time>
      </trkpt>
      <trkpt lat="43.62459" lon="5.57819">
        <ele>319</ele>
        <time>2020-03-03T14:17:41Z</time>
      </trkpt>
      <trkpt lat="43.62469" lon="5.57818">
        <ele>318</ele>
        <time>2020-03-03T14:17:50Z</time>
      </trkpt>
      <trkpt lat="43.62478" lon="5.57819">
        <ele>317</ele>
        <time>2020-03-03T14:17:59Z</time>
      </trkpt>
      <trkpt lat="43.62487" lon="5.5782">
        <ele>316</ele>
        <time>2020-03-03T14:18:08Z</time>
      </trkpt>
      <trkpt lat="43.62496" lon="5.57822">
        <ele>316</ele>
        <time>2020-03-03T14:18:16Z</time>
      </trkpt>
      <trkpt lat="43.62506" lon="5.57824">
        <ele>315</ele>
        <time>2020-03-03T14:18:26Z</time>
      </trkpt>
      <trkpt lat="43.62515" lon="5.57823">
        <ele>315</ele>
        <time>2020-03-03T14:18:35Z</time>
      </trkpt>
      <trkpt lat="43.62524" lon="5.57819">
        <ele>312</ele>
        <time>2020-03-03T14:18:44Z</time>
      </trkpt>
      <trkpt lat="43.62533" lon="5.57816">
        <ele>312</ele>
        <time>2020-03-03T14:18:53Z</time>
      </trkpt>
      <trkpt lat="43.62543" lon="5.57811">
        <ele>311</ele>
        <time>2020-03-03T14:19:02Z</time>
      </trkpt>
      <trkpt lat="43.62551" lon="5.57807">
        <ele>311</ele>
        <time>2020-03-03T14:19:13Z</time>
      </trkpt>
      <trkpt lat="43.6256" lon="5.57801">
        <ele>313</ele>
        <time>2020-03-03T14:19:25Z</time>
      </trkpt>
      <trkpt lat="43.6257" lon="5.57796">
        <ele>311</ele>
        <time>2020-03-03T14:19:36Z</time>
      </trkpt>
      <trkpt lat="43.62578" lon="5.57791">
        <ele>311</ele>
        <time>2020-03-03T14:19:46Z</time>
      </trkpt>
      <trkpt lat="43.62587" lon="5.57788">
        <ele>309</ele>
        <time>2020-03-03T14:19:56Z</time>
      </trkpt>
      <trkpt lat="43.62597" lon="5.57791">
        <ele>310</ele>
        <time>2020-03-03T14:20:03Z</time>
      </trkpt>
      <trkpt lat="43.62606" lon="5.57795">
        <ele>310</ele>
        <time>2020-03-03T14:20:11Z</time>
      </trkpt>
      <trkpt lat="43.62615" lon="5.578">
        <ele>309</ele>
        <time>2020-03-03T14:20:20Z</time>
      </trkpt>
      <trkpt lat="43.62623" lon="5.57804">
        <ele>309</ele>
        <time>2020-03-03T14:20:33Z</time>
      </trkpt>
      <trkpt lat="43.62632" lon="5.57812">
        <ele>308</ele>
        <time>2020-03-03T14:21:21Z</time>
      </trkpt>
      <trkpt lat="43.62641" lon="5.57818">
        <ele>308</ele>
        <time>2020-03-03T14:21:31Z</time>
      </trkpt>
      <trkpt lat="43.62649" lon="5.57823">
        <ele>308</ele>
        <time>2020-03-03T14:21:40Z</time>
      </trkpt>
      <trkpt lat="43.62657" lon="5.5783">
        <ele>308</ele>
        <time>2020-03-03T14:21:51Z</time>
      </trkpt>
      <trkpt lat="43.62665" lon="5.57836">
        <ele>307</ele>
        <time>2020-03-03T14:22:03Z</time>
      </trkpt>
      <trkpt lat="43.62672" lon="5.57844">
        <ele>306</ele>
        <time>2020-03-03T14:22:14Z</time>
      </trkpt>
      <trkpt lat="43.62679" lon="5.57852">
        <ele>305</ele>
        <time>2020-03-03T14:22:24Z</time>
      </trkpt>
      <trkpt lat="43.62686" lon="5.57861">
        <ele>304</ele>
        <time>2020-03-03T14:22:35Z</time>
      </trkpt>
      <trkpt lat="43.62692" lon="5.5787">
        <ele>306</ele>
        <time>2020-03-03T14:22:45Z</time>
      </trkpt>
      <trkpt lat="43.627" lon="5.57877">
        <ele>305</ele>
        <time>2020-03-03T14:22:55Z</time>
      </trkpt>
      <trkpt lat="43.62708" lon="5.57883">
        <ele>302</ele>
        <time>2020-03-03T14:23:07Z</time>
      </trkpt>
      <trkpt lat="43.62718" lon="5.57882">
        <ele>302</ele>
        <time>2020-03-03T14:23:19Z</time>
      </trkpt>
      <trkpt lat="43.62727" lon="5.57879">
        <ele>302</ele>
        <time>2020-03-03T14:23:29Z</time>
      </trkpt>
      <trkpt lat="43.62736" lon="5.57879">
        <ele>301</ele>
        <time>2020-03-03T14:23:41Z</time>
      </trkpt>
      <trkpt lat="43.62746" lon="5.57879">
        <ele>301</ele>
        <time>2020-03-03T14:23:52Z</time>
      </trkpt>
      <trkpt lat="43.62755" lon="5.57882">
        <ele>301</ele>
        <time>2020-03-03T14:24:02Z</time>
      </trkpt>
      <trkpt lat="43.62765" lon="5.57884">
        <ele>300</ele>
        <time>2020-03-03T14:24:12Z</time>
      </trkpt>
      <trkpt lat="43.62775" lon="5.57885">
        <ele>300</ele>
        <time>2020-03-03T14:24:27Z</time>
      </trkpt>
      <trkpt lat="43.62784" lon="5.57885">
        <ele>297</ele>
        <time>2020-03-03T14:24:36Z</time>
      </trkpt>
      <trkpt lat="43.62793" lon="5.57883">
        <ele>297</ele>
        <time>2020-03-03T14:24:45Z</time>
      </trkpt>
      <trkpt lat="43.62803" lon="5.57881">
        <ele>297</ele>
        <time>2020-03-03T14:24:54Z</time>
      </trkpt>
      <trkpt lat="43.62813" lon="5.57882">
        <ele>296</ele>
        <time>2020-03-03T14:25:04Z</time>
      </trkpt>
      <trkpt lat="43.62822" lon="5.57886">
        <ele>295</ele>
        <time>2020-03-03T14:25:15Z</time>
      </trkpt>
      <trkpt lat="43.62829" lon="5.57895">
        <ele>294</ele>
        <time>2020-03-03T14:25:24Z</time>
      </trkpt>
      <trkpt lat="43.62834" lon="5.57906">
        <ele>294</ele>
        <time>2020-03-03T14:25:33Z</time>
      </trkpt>
      <trkpt lat="43.62838" lon="5.57919">
        <ele>293</ele>
        <time>2020-03-03T14:25:44Z</time>
      </trkpt>
      <trkpt lat="43.62838" lon="5.57932">
        <ele>292</ele>
        <time>2020-03-03T14:25:55Z</time>
      </trkpt>
      <trkpt lat="43.62839" lon="5.57946">
        <ele>291</ele>
        <time>2020-03-03T14:26:05Z</time>
      </trkpt>
      <trkpt lat="43.62839" lon="5.57959">
        <ele>291</ele>
        <time>2020-03-03T14:26:14Z</time>
      </trkpt>
      <trkpt lat="43.62838" lon="5.57973">
        <ele>290</ele>
        <time>2020-03-03T14:26:24Z</time>
      </trkpt>
      <trkpt lat="43.62837" lon="5.57985">
        <ele>289</ele>
        <time>2020-03-03T14:26:34Z</time>
      </trkpt>
      <trkpt lat="43.62834" lon="5.57997">
        <ele>289</ele>
        <time>2020-03-03T14:26:43Z</time>
      </trkpt>
      <trkpt lat="43.62829" lon="5.58009">
        <ele>289</ele>
        <time>2020-03-03T14:26:52Z</time>
      </trkpt>
      <trkpt lat="43.62828" lon="5.58021">
        <ele>289</ele>
        <time>2020-03-03T14:27:03Z</time>
      </trkpt>
      <trkpt lat="43.62828" lon="5.58035">
        <ele>288</ele>
        <time>2020-03-03T14:27:13Z</time>
      </trkpt>
      <trkpt lat="43.62831" lon="5.58046">
        <ele>284</ele>
        <time>2020-03-03T14:28:29Z</time>
      </trkpt>
      <trkpt lat="43.62833" lon="5.5806">
        <ele>287</ele>
        <time>2020-03-03T14:28:51Z</time>
      </trkpt>
      <trkpt lat="43.62833" lon="5.58073">
        <ele>287</ele>
        <time>2020-03-03T14:29:00Z</time>
      </trkpt>
      <trkpt lat="43.62834" lon="5.58086">
        <ele>287</ele>
        <time>2020-03-03T14:29:09Z</time>
      </trkpt>
      <trkpt lat="43.62834" lon="5.581">
        <ele>287</ele>
        <time>2020-03-03T14:29:22Z</time>
      </trkpt>
      <trkpt lat="43.62836" lon="5.58112">
        <ele>286</ele>
        <time>2020-03-03T14:29:30Z</time>
      </trkpt>
      <trkpt lat="43.62842" lon="5.58122">
        <ele>288</ele>
        <time>2020-03-03T14:29:41Z</time>
      </trkpt>
      <trkpt lat="43.62849" lon="5.58131">
        <ele>288</ele>
        <time>2020-03-03T14:29:50Z</time>
      </trkpt>
      <trkpt lat="43.62854" lon="5.58142">
        <ele>288</ele>
        <time>2020-03-03T14:29:58Z</time>
      </trkpt>
      <trkpt lat="43.62861" lon="5.5815">
        <ele>288</ele>
        <time>2020-03-03T14:30:09Z</time>
      </trkpt>
      <trkpt lat="43.62866" lon="5.58161">
        <ele>288</ele>
        <time>2020-03-03T14:30:19Z</time>
      </trkpt>
      <trkpt lat="43.62871" lon="5.58172">
        <ele>287</ele>
        <time>2020-03-03T14:30:29Z</time>
      </trkpt>
      <trkpt lat="43.62876" lon="5.58183">
        <ele>287</ele>
        <time>2020-03-03T14:30:38Z</time>
      </trkpt>
      <trkpt lat="43.62883" lon="5.58192">
        <ele>288</ele>
        <time>2020-03-03T14:30:46Z</time>
      </trkpt>
      <trkpt lat="43.6289" lon="5.58201">
        <ele>288</ele>
        <time>2020-03-03T14:30:55Z</time>
      </trkpt>
      <trkpt lat="43.62897" lon="5.5821">
        <ele>287</ele>
        <time>2020-03-03T14:31:04Z</time>
      </trkpt>
      <trkpt lat="43.62904" lon="5.58219">
        <ele>288</ele>
        <time>2020-03-03T14:31:15Z</time>
      </trkpt>
      <trkpt lat="43.62911" lon="5.58228">
        <ele>287</ele>
        <time>2020-03-03T14:31:24Z</time>
      </trkpt>
      <trkpt lat="43.62918" lon="5.58237">
        <ele>288</ele>
        <time>2020-03-03T14:31:33Z</time>
      </trkpt>
      <trkpt lat="43.62927" lon="5.58242">
        <ele>286</ele>
        <time>2020-03-03T14:31:43Z</time>
      </trkpt>
      <trkpt lat="43.62935" lon="5.58246">
        <ele>288</ele>
        <time>2020-03-03T14:31:51Z</time>
      </trkpt>
      <trkpt lat="43.62945" lon="5.58251">
        <ele>290</ele>
        <time>2020-03-03T14:32:01Z</time>
      </trkpt>
      <trkpt lat="43.62954" lon="5.58255">
        <ele>290</ele>
        <time>2020-03-03T14:32:10Z</time>
      </trkpt>
      <trkpt lat="43.62964" lon="5.58256">
        <ele>290</ele>
        <time>2020-03-03T14:32:19Z</time>
      </trkpt>
      <trkpt lat="43.62973" lon="5.58259">
        <ele>290</ele>
        <time>2020-03-03T14:32:28Z</time>
      </trkpt>
      <trkpt lat="43.62982" lon="5.58263">
        <ele>292</ele>
        <time>2020-03-03T14:32:37Z</time>
      </trkpt>
      <trkpt lat="43.62992" lon="5.58265">
        <ele>293</ele>
        <time>2020-03-03T14:32:45Z</time>
      </trkpt>
      <trkpt lat="43.63001" lon="5.58267">
        <ele>293</ele>
        <time>2020-03-03T14:32:52Z</time>
      </trkpt>
      <trkpt lat="43.6301" lon="5.5827">
        <ele>290</ele>
        <time>2020-03-03T14:33:04Z</time>
      </trkpt>
      <trkpt lat="43.63019" lon="5.58272">
        <ele>291</ele>
        <time>2020-03-03T14:33:13Z</time>
      </trkpt>
      <trkpt lat="43.63029" lon="5.58273">
        <ele>293</ele>
        <time>2020-03-03T14:33:22Z</time>
      </trkpt>
      <trkpt lat="43.63038" lon="5.58271">
        <ele>292</ele>
        <time>2020-03-03T14:33:32Z</time>
      </trkpt>
      <trkpt lat="43.63047" lon="5.58271">
        <ele>289</ele>
        <time>2020-03-03T14:33:41Z</time>
      </trkpt>
      <trkpt lat="43.63056" lon="5.58272">
        <ele>289</ele>
        <time>2020-03-03T14:33:50Z</time>
      </trkpt>
      <trkpt lat="43.63066" lon="5.58273">
        <ele>287</ele>
        <time>2020-03-03T14:33:58Z</time>
      </trkpt>
      <trkpt lat="43.63075" lon="5.58276">
        <ele>287</ele>
        <time>2020-03-03T14:34:08Z</time>
      </trkpt>
      <trkpt lat="43.63084" lon="5.58276">
        <ele>289</ele>
        <time>2020-03-03T14:34:17Z</time>
      </trkpt>
      <trkpt lat="43.63094" lon="5.58275">
        <ele>286</ele>
        <time>2020-03-03T14:34:28Z</time>
      </trkpt>
      <trkpt lat="43.63103" lon="5.58274">
        <ele>286</ele>
        <time>2020-03-03T14:34:35Z</time>
      </trkpt>
      <trkpt lat="43.63112" lon="5.58273">
        <ele>285</ele>
        <time>2020-03-03T14:34:43Z</time>
      </trkpt>
      <trkpt lat="43.63122" lon="5.58274">
        <ele>283</ele>
        <time>2020-03-03T14:34:53Z</time>
      </trkpt>
      <trkpt lat="43.63131" lon="5.58277">
        <ele>281</ele>
        <time>2020-03-03T14:35:03Z</time>
      </trkpt>
      <trkpt lat="43.63141" lon="5.5828">
        <ele>281</ele>
        <time>2020-03-03T14:35:11Z</time>
      </trkpt>
      <trkpt lat="43.6315" lon="5.58282">
        <ele>281</ele>
        <time>2020-03-03T14:35:19Z</time>
      </trkpt>
      <trkpt lat="43.63159" lon="5.5828">
        <ele>281</ele>
        <time>2020-03-03T14:35:30Z</time>
      </trkpt>
      <trkpt lat="43.63169" lon="5.58282">
        <ele>281</ele>
        <time>2020-03-03T14:35:39Z</time>
      </trkpt>
      <trkpt lat="43.63178" lon="5.58283">
        <ele>278</ele>
        <time>2020-03-03T14:35:48Z</time>
      </trkpt>
      <trkpt lat="43.63187" lon="5.58285">
        <ele>279</ele>
        <time>2020-03-03T14:35:58Z</time>
      </trkpt>
      <trkpt lat="43.63186" lon="5.58299">
        <ele>278</ele>
        <time>2020-03-03T14:36:30Z</time>
      </trkpt>
      <trkpt lat="43.6319" lon="5.5831">
        <ele>278</ele>
        <time>2020-03-03T14:36:49Z</time>
      </trkpt>
      <trkpt lat="43.63192" lon="5.58325">
        <ele>273</ele>
        <time>2020-03-03T14:37:06Z</time>
      </trkpt>
      <trkpt lat="43.63193" lon="5.58338">
        <ele>271</ele>
        <time>2020-03-03T14:37:16Z</time>
      </trkpt>
      <trkpt lat="43.63193" lon="5.5835">
        <ele>269</ele>
        <time>2020-03-03T14:37:26Z</time>
      </trkpt>
      <trkpt lat="43.63193" lon="5.58363">
        <ele>271</ele>
        <time>2020-03-03T14:37:36Z</time>
      </trkpt>
      <trkpt lat="43.63192" lon="5.58376">
        <ele>268</ele>
        <time>2020-03-03T14:37:47Z</time>
      </trkpt>
      <trkpt lat="43.63194" lon="5.5839">
        <ele>266</ele>
        <time>2020-03-03T14:37:58Z</time>
      </trkpt>
      <trkpt lat="43.63196" lon="5.58402">
        <ele>267</ele>
        <time>2020-03-03T14:38:07Z</time>
      </trkpt>
      <trkpt lat="43.63198" lon="5.58415">
        <ele>265</ele>
        <time>2020-03-03T14:38:17Z</time>
      </trkpt>
      <trkpt lat="43.63203" lon="5.58426">
        <ele>266</ele>
        <time>2020-03-03T14:38:29Z</time>
      </trkpt>
      <trkpt lat="43.63211" lon="5.58433">
        <ele>268</ele>
        <time>2020-03-03T14:38:40Z</time>
      </trkpt>
      <trkpt lat="43.6322" lon="5.58439">
        <ele>270</ele>
        <time>2020-03-03T14:38:51Z</time>
      </trkpt>
      <trkpt lat="43.6322" lon="5.58451">
        <ele>269</ele>
        <time>2020-03-03T14:39:03Z</time>
      </trkpt>
      <trkpt lat="43.63213" lon="5.58459">
        <ele>267</ele>
        <time>2020-03-03T14:39:12Z</time>
      </trkpt>
      <trkpt lat="43.63205" lon="5.58465">
        <ele>265</ele>
        <time>2020-03-03T14:39:22Z</time>
      </trkpt>
      <trkpt lat="43.63201" lon="5.58477">
        <ele>265</ele>
        <time>2020-03-03T14:39:32Z</time>
      </trkpt>
      <trkpt lat="43.63201" lon="5.5849">
        <ele>264</ele>
        <time>2020-03-03T14:39:41Z</time>
      </trkpt>
      <trkpt lat="43.63205" lon="5.58501">
        <ele>265</ele>
        <time>2020-03-03T14:39:50Z</time>
      </trkpt>
      <trkpt lat="43.63211" lon="5.58512">
        <ele>266</ele>
        <time>2020-03-03T14:40:07Z</time>
      </trkpt>
      <trkpt lat="43.63214" lon="5.58524">
        <ele>265</ele>
        <time>2020-03-03T14:40:16Z</time>
      </trkpt>
      <trkpt lat="43.63216" lon="5.58537">
        <ele>262</ele>
        <time>2020-03-03T14:40:26Z</time>
      </trkpt>
      <trkpt lat="43.63222" lon="5.58548">
        <ele>261</ele>
        <time>2020-03-03T14:40:35Z</time>
      </trkpt>
      <trkpt lat="43.6323" lon="5.58554">
        <ele>262</ele>
        <time>2020-03-03T14:40:43Z</time>
      </trkpt>
      <trkpt lat="43.63239" lon="5.58552">
        <ele>265</ele>
        <time>2020-03-03T14:40:52Z</time>
      </trkpt>
      <trkpt lat="43.63247" lon="5.58545">
        <ele>265</ele>
        <time>2020-03-03T14:41:02Z</time>
      </trkpt>
      <trkpt lat="43.63255" lon="5.5854">
        <ele>264</ele>
        <time>2020-03-03T14:41:10Z</time>
      </trkpt>
      <trkpt lat="43.63264" lon="5.5854">
        <ele>263</ele>
        <time>2020-03-03T14:41:20Z</time>
      </trkpt>
      <trkpt lat="43.63273" lon="5.58543">
        <ele>264</ele>
        <time>2020-03-03T14:42:41Z</time>
      </trkpt>
      <trkpt lat="43.63283" lon="5.58544">
        <ele>263</ele>
        <time>2020-03-03T14:42:51Z</time>
      </trkpt>
      <trkpt lat="43.63293" lon="5.58543">
        <ele>263</ele>
        <time>2020-03-03T14:43:02Z</time>
      </trkpt>
      <trkpt lat="43.63302" lon="5.58546">
        <ele>262</ele>
        <time>2020-03-03T14:43:12Z</time>
      </trkpt>
      <trkpt lat="43.6331" lon="5.58553">
        <ele>262</ele>
        <time>2020-03-03T14:43:21Z</time>
      </trkpt>
      <trkpt lat="43.63315" lon="5.58565">
        <ele>258</ele>
        <time>2020-03-03T14:43:31Z</time>
      </trkpt>
      <trkpt lat="43.6332" lon="5.58576">
        <ele>255</ele>
        <time>2020-03-03T14:43:41Z</time>
      </trkpt>
      <trkpt lat="43.63323" lon="5.58589">
        <ele>253</ele>
        <time>2020-03-03T14:43:52Z</time>
      </trkpt>
      <trkpt lat="43.63326" lon="5.58601">
        <ele>253</ele>
        <time>2020-03-03T14:44:01Z</time>
      </trkpt>
      <trkpt lat="43.63327" lon="5.58615">
        <ele>250</ele>
        <time>2020-03-03T14:44:10Z</time>
      </trkpt>
      <trkpt lat="43.6333" lon="5.58628">
        <ele>250</ele>
        <time>2020-03-03T14:44:20Z</time>
      </trkpt>
      <trkpt lat="43.63338" lon="5.58634">
        <ele>251</ele>
        <time>2020-03-03T14:44:31Z</time>
      </trkpt>
      <trkpt lat="43.63347" lon="5.58638">
        <ele>252</ele>
        <time>2020-03-03T14:44:41Z</time>
      </trkpt>
      <trkpt lat="43.63356" lon="5.5864">
        <ele>252</ele>
        <time>2020-03-03T14:44:50Z</time>
      </trkpt>
      <trkpt lat="43.63365" lon="5.58644">
        <ele>252</ele>
        <time>2020-03-03T14:44:58Z</time>
      </trkpt>
      <trkpt lat="43.63374" lon="5.58649">
        <ele>252</ele>
        <time>2020-03-03T14:45:06Z</time>
      </trkpt>
      <trkpt lat="43.6338" lon="5.58659">
        <ele>250</ele>
        <time>2020-03-03T14:45:15Z</time>
      </trkpt>
      <trkpt lat="43.63387" lon="5.58667">
        <ele>250</ele>
        <time>2020-03-03T14:45:24Z</time>
      </trkpt>
      <trkpt lat="43.63395" lon="5.58674">
        <ele>253</ele>
        <time>2020-03-03T14:45:34Z</time>
      </trkpt>
      <trkpt lat="43.63403" lon="5.58682">
        <ele>252</ele>
        <time>2020-03-03T14:45:44Z</time>
      </trkpt>
      <trkpt lat="43.63411" lon="5.58687">
        <ele>251</ele>
        <time>2020-03-03T14:45:53Z</time>
      </trkpt>
      <trkpt lat="43.6342" lon="5.58692">
        <ele>250</ele>
        <time>2020-03-03T14:46:03Z</time>
      </trkpt>
      <trkpt lat="43.63429" lon="5.58698">
        <ele>250</ele>
        <time>2020-03-03T14:46:18Z</time>
      </trkpt>
      <trkpt lat="43.63437" lon="5.58703">
        <ele>251</ele>
        <time>2020-03-03T14:46:27Z</time>
      </trkpt>
      <trkpt lat="43.63445" lon="5.58711">
        <ele>249</ele>
        <time>2020-03-03T14:46:36Z</time>
      </trkpt>
      <trkpt lat="43.63452" lon="5.58718">
        <ele>250</ele>
        <time>2020-03-03T14:46:44Z</time>
      </trkpt>
      <trkpt lat="43.6346" lon="5.58726">
        <ele>247</ele>
        <time>2020-03-03T14:46:52Z</time>
      </trkpt>
      <trkpt lat="43.63465" lon="5.58736">
        <ele>246</ele>
        <time>2020-03-03T14:47:01Z</time>
      </trkpt>
      <trkpt lat="43.6347" lon="5.58747">
        <ele>244</ele>
        <time>2020-03-03T14:48:52Z</time>
      </trkpt>
      <trkpt lat="43.63476" lon="5.58756">
        <ele>246</ele>
        <time>2020-03-03T14:49:01Z</time>
      </trkpt>
      <trkpt lat="43.63483" lon="5.58765">
        <ele>250</ele>
        <time>2020-03-03T14:49:12Z</time>
      </trkpt>
      <trkpt lat="43.63491" lon="5.58773">
        <ele>250</ele>
        <time>2020-03-03T14:49:21Z</time>
      </trkpt>
      <trkpt lat="43.63499" lon="5.5878">
        <ele>251</ele>
        <time>2020-03-03T14:49:29Z</time>
      </trkpt>
      <trkpt lat="43.63508" lon="5.58785">
        <ele>252</ele>
        <time>2020-03-03T14:49:38Z</time>
      </trkpt>
      <trkpt lat="43.63517" lon="5.5879">
        <ele>250</ele>
        <time>2020-03-03T14:49:48Z</time>
      </trkpt>
      <trkpt lat="43.63526" lon="5.58797">
        <ele>247</ele>
        <time>2020-03-03T14:49:59Z</time>
      </trkpt>
      <trkpt lat="43.63533" lon="5.58805">
        <ele>246</ele>
        <time>2020-03-03T14:50:07Z</time>
      </trkpt>
      <trkpt lat="43.63541" lon="5.58813">
        <ele>247</ele>
        <time>2020-03-03T14:50:16Z</time>
      </trkpt>
      <trkpt lat="43.63548" lon="5.58821">
        <ele>246</ele>
        <time>2020-03-03T14:50:25Z</time>
      </trkpt>
      <trkpt lat="43.63556" lon="5.58828">
        <ele>247</ele>
        <time>2020-03-03T14:50:34Z</time>
      </trkpt>
      <trkpt lat="43.63563" lon="5.58836">
        <ele>246</ele>
        <time>2020-03-03T14:50:42Z</time>
      </trkpt>
      <trkpt lat="43.63571" lon="5.58841">
        <ele>246</ele>
        <time>2020-03-03T14:50:52Z</time>
      </trkpt>
      <trkpt lat="43.63581" lon="5.58845">
        <ele>247</ele>
        <time>2020-03-03T14:51:02Z</time>
      </trkpt>
      <trkpt lat="43.6359" lon="5.58845">
        <ele>248</ele>
        <time>2020-03-03T14:51:11Z</time>
      </trkpt>
      <trkpt lat="43.63599" lon="5.58843">
        <ele>247</ele>
        <time>2020-03-03T14:51:20Z</time>
      </trkpt>
      <trkpt lat="43.63608" lon="5.58841">
        <ele>247</ele>
        <time>2020-03-03T14:51:29Z</time>
      </trkpt>
      <trkpt lat="43.63617" lon="5.58836">
        <ele>244</ele>
        <time>2020-03-03T14:51:40Z</time>
      </trkpt>
    </trkseg>
  </trk>
</gpx>